East Amana, Iowa
Current Conditions -  °F | °C
As of 9:52 PM on Monday 22 Dec 2014 (Local Time) from KCID Reporting Station
Light Rain Light Rain  
Wind Chill: 31°   Ceiling: 300
Heat Index: 38°   Visibility: 3mi
Dew Point: 38°   Wind: 9mph
Humidity: 100%   Direction: 80°E
Pressure: 29.47"   Gusts: NA
Location:  41.8244°N, 91.8792°W
Report Text: KCID 230352Z 08008KT 3SM -RA BR OVC003 03/03 A2947 RMK AO2 SLP986 P0003 T00330033 $
Loading
Personal Weather Stations






























Interactive Weather Map New forecast layout! Learn more

10-Day Weather Forecast

Advertisements
Track Severe Weather on mobile